Time,TemperatureF,DewpointF,PressureIn,WindDirection,WindDirectionDegrees,WindSpeedMPH,WindSpeedGustMPH,Humidity,HourlyPrecipIn,Conditions,Clouds,dailyrainin,SolarRadiationWatts/m^2,SoftwareType,DateUTC
2013-02-17 00:04:00,29.3,24.2,29.83,North,32767,-999.0,0.0,81,0.00,,,0.00,0,Wunderground v.1.15,2013-02-17 05:04:00,
2013-02-17 00:09:00,29.1,24.3,29.83,North,32767,-999.0,0.0,82,0.00,,,0.00,0,Wunderground v.1.15,2013-02-17 05:09:00,
2013-02-17 00:14:00,29.1,24.3,29.83,North,32767,-999.0,0.0,82,0.00,,,0.00,0,Wunderground v.1.15,2013-02-17 05:14:00,
2013-02-17 00:19:00,29.0,24.2,29.83,North,32767,-999.0,0.0,82,0.00,,,0.00,0,Wunderground v.1.15,2013-02-17 05:19:00,
2013-02-17 00:24:00,29.0,23.9,29.83,North,32767,-999.0,0.0,81,0.00,,,0.00,0,Wunderground v.1.15,2013-02-17 05:24:00,
2013-02-17 00:29:00,28.8,23.7,29.83,North,32767,-999.0,0.0,81,0.00,,,0.00,0,Wunderground v.1.15,2013-02-17 05:29:00,
2013-02-17 00:34:00,28.8,23.4,29.84,North,32767,-999.0,0.0,80,0.00,,,0.00,0,Wunderground v.1.15,2013-02-17 05:34:00,
2013-02-17 00:39:00,28.7,23.3,29.84,North,32767,-999.0,0.0,80,0.00,,,0.00,0,Wunderground v.1.15,2013-02-17 05:39:00,
2013-02-17 00:45:00,28.7,23.3,29.84,North,32767,-999.0,0.0,80,0.00,,,0.00,0,Wunderground v.1.15,2013-02-17 05:45:00,
2013-02-17 00:49:00,28.7,23.3,29.84,North,32767,-999.0,0.0,80,0.00,,,0.00,0,Wunderground v.1.15,2013-02-17 05:49:00,
2013-02-17 00:59:00,28.5,22.8,29.84,North,32767,-999.0,0.0,79,0.00,,,0.00,0,Wunderground v.1.15,2013-02-17 05:59:00,
2013-02-17 01:05:00,28.5,23.1,29.85,North,32767,-999.0,0.0,80,0.00,,,0.00,0,Wunderground v.1.15,2013-02-17 06:05:00,
2013-02-17 01:10:00,28.4,22.1,29.85,North,32767,-999.0,0.0,77,0.00,,,0.00,0,Wunderground v.1.15,2013-02-17 06:10:00,
2013-02-17 01:20:00,28.4,22.1,29.85,North,32767,-999.0,0.0,77,0.00,,,0.00,0,Wunderground v.1.15,2013-02-17 06:20:00,
2013-02-17 01:25:00,28.2,22.2,29.85,North,32767,-999.0,0.0,78,0.00,,,0.00,0,Wunderground v.1.15,2013-02-17 06:25:00,
2013-02-17 01:30:00,28.2,22.2,29.85,North,32767,-999.0,0.0,78,0.00,,,0.00,0,Wunderground v.1.15,2013-02-17 06:30:00,
2013-02-17 01:40:00,27.9,21.6,29.86,North,32767,-999.0,0.0,77,0.00,,,0.00,0,Wunderground v.1.15,2013-02-17 06:40:00,
2013-02-17 01:50:00,27.8,21.5,29.86,North,32767,-999.0,0.0,77,0.00,,,0.00,0,Wunderground v.1.15,2013-02-17 06:50:00,
2013-02-17 01:55:00,27.6,21.9,29.86,North,32767,-999.0,0.0,79,0.00,,,0.00,0,Wunderground v.1.15,2013-02-17 06:55:00,
2013-02-17 02:05:00,27.3,21.6,29.86,North,32767,-999.0,0.0,79,0.00,,,0.00,0,Wunderground v.1.15,2013-02-17 07:05:00,
2013-02-17 02:10:00,27.3,21.9,29.86,North,32767,-999.0,0.0,80,0.00,,,0.00,0,Wunderground v.1.15,2013-02-17 07:10:00,
2013-02-17 02:15:00,27.2,21.8,29.86,North,32767,-999.0,0.0,80,0.00,,,0.00,0,Wunderground v.1.15,2013-02-17 07:15:00,
2013-02-17 02:25:00,27.0,21.7,29.86,North,32767,-999.0,0.0,80,0.00,,,0.00,0,Wunderground v.1.15,2013-02-17 07:25:00,
2013-02-17 02:30:00,26.9,21.6,29.86,North,32767,-999.0,0.0,80,0.00,,,0.00,0,Wunderground v.1.15,2013-02-17 07:30:00,
2013-02-17 02:40:00,26.7,21.4,29.86,North,32767,-999.0,0.0,80,0.00,,,0.00,0,Wunderground v.1.15,2013-02-17 07:40:00,
2013-02-17 02:45:00,26.7,21.4,29.86,North,32767,-999.0,0.0,80,0.00,,,0.00,0,Wunderground v.1.15,2013-02-17 07:45:00,
2013-02-17 02:55:00,26.6,21.3,29.87,North,32767,-999.0,0.0,80,0.00,,,0.00,0,Wunderground v.1.15,2013-02-17 07:55:00,
2013-02-17 03:00:00,26.4,21.1,29.87,North,32767,-999.0,0.0,80,0.00,,,0.00,0,Wunderground v.1.15,2013-02-17 08:00:00,
2013-02-17 03:10:00,26.3,21.0,29.87,North,32767,-999.0,0.0,80,0.00,,,0.00,0,Wunderground v.1.15,2013-02-17 08:10:00,
2013-02-17 03:20:00,26.1,20.5,29.87,North,32767,-999.0,0.0,79,0.00,,,0.00,0,Wunderground v.1.15,2013-02-17 08:20:00,
2013-02-17 03:30:00,26.0,21.0,29.87,North,32767,-999.0,0.0,81,0.00,,,0.00,0,Wunderground v.1.15,2013-02-17 08:30:00,
2013-02-17 03:40:00,25.8,20.2,29.87,North,32767,-999.0,0.0,79,0.00,,,0.00,0,Wunderground v.1.15,2013-02-17 08:40:00,
2013-02-17 03:45:00,25.8,20.5,29.87,North,32767,-999.0,0.0,80,0.00,,,0.00,0,Wunderground v.1.15,2013-02-17 08:45:00,
2013-02-17 03:55:00,25.8,20.2,29.87,North,32767,-999.0,0.0,79,0.00,,,0.00,0,Wunderground v.1.15,2013-02-17 08:55:00,
2013-02-17 04:00:00,25.7,20.1,29.87,North,32767,-999.0,0.0,79,0.00,,,0.00,0,Wunderground v.1.15,2013-02-17 09:00:00,
2013-02-17 04:10:00,25.7,20.1,29.88,North,32767,-999.0,0.0,79,0.00,,,0.00,0,Wunderground v.1.15,2013-02-17 09:10:00,
2013-02-17 04:15:00,25.7,20.1,29.88,North,32767,-999.0,0.0,79,0.00,,,0.00,0,Wunderground v.1.15,2013-02-17 09:15:00,
2013-02-17 04:25:00,25.7,19.8,29.88,North,32767,-999.0,0.0,78,0.00,,,0.00,0,Wunderground v.1.15,2013-02-17 09:25:00,
2013-02-17 04:30:00,25.7,19.8,29.88,North,32767,-999.0,0.0,78,0.00,,,0.00,0,Wunderground v.1.15,2013-02-17 09:30:00,
2013-02-17 04:40:00,25.4,19.5,29.89,North,32767,-999.0,0.0,78,0.00,,,0.00,0,Wunderground v.1.15,2013-02-17 09:40:00,
2013-02-17 04:45:00,25.4,19.5,29.89,North,32767,-999.0,0.0,78,0.00,,,0.00,0,Wunderground v.1.15,2013-02-17 09:45:00,
2013-02-17 04:50:00,25.3,19.1,29.89,North,32767,-999.0,0.0,77,0.00,,,0.00,0,Wunderground v.1.15,2013-02-17 09:50:00,
2013-02-17 05:00:00,25.3,19.4,29.89,North,32767,-999.0,0.0,78,0.00,,,0.00,0,Wunderground v.1.15,2013-02-17 10:00:00,
2013-02-17 05:05:00,25.3,19.1,29.90,North,32767,-999.0,0.0,77,0.00,,,0.00,0,Wunderground v.1.15,2013-02-17 10:05:00,
2013-02-17 05:15:00,25.1,18.6,29.90,North,32767,-999.0,0.0,76,0.00,,,0.00,0,Wunderground v.1.15,2013-02-17 10:15:00,
2013-02-17 05:20:00,25.1,18.3,29.91,North,32767,-999.0,0.0,75,0.00,,,0.00,0,Wunderground v.1.15,2013-02-17 10:20:00,
2013-02-17 05:30:00,25.0,18.8,29.91,North,32767,-999.0,0.0,77,0.00,,,0.00,0,Wunderground v.1.15,2013-02-17 10:30:00,
2013-02-17 05:35:00,24.8,18.6,29.92,North,32767,-999.0,0.0,77,0.00,,,0.00,0,Wunderground v.1.15,2013-02-17 10:35:00,
2013-02-17 05:45:00,24.8,18.3,29.92,North,32767,-999.0,0.0,76,0.00,,,0.00,0,Wunderground v.1.15,2013-02-17 10:45:00,
2013-02-17 05:50:00,24.8,18.0,29.92,North,32767,-999.0,0.0,75,0.00,,,0.00,0,Wunderground v.1.15,2013-02-17 10:50:00,
2013-02-17 05:55:00,25.0,18.8,29.92,North,32767,-999.0,0.0,77,0.00,,,0.00,0,Wunderground v.1.15,2013-02-17 10:55:00,
2013-02-17 06:05:00,24.7,18.2,29.92,North,32767,-999.0,0.0,76,0.00,,,0.00,0,Wunderground v.1.15,2013-02-17 11:05:00,
2013-02-17 06:10:00,24.5,17.7,29.92,North,32767,-999.0,0.0,75,0.00,,,0.00,0,Wunderground v.1.15,2013-02-17 11:10:00,
2013-02-17 06:20:00,24.4,17.6,29.93,North,32767,-999.0,0.0,75,0.00,,,0.00,0,Wunderground v.1.15,2013-02-17 11:20:00,
2013-02-17 06:25:00,24.4,17.0,29.93,North,32767,-999.0,0.0,73,0.00,,,0.00,0,Wunderground v.1.15,2013-02-17 11:25:00,
2013-02-17 06:30:00,24.4,17.3,29.93,North,32767,-999.0,0.0,74,0.00,,,0.00,0,Wunderground v.1.15,2013-02-17 11:30:00,
2013-02-17 06:40:00,24.2,16.8,29.94,North,32767,-999.0,0.0,73,0.00,,,0.00,0,Wunderground v.1.15,2013-02-17 11:40:00,
2013-02-17 06:45:00,24.4,16.7,29.94,North,32767,-999.0,0.0,72,0.00,,,0.00,0,Wunderground v.1.15,2013-02-17 11:45:00,
2013-02-17 06:50:00,24.4,16.0,29.94,North,32767,-999.0,0.0,70,0.00,,,0.00,0,Wunderground v.1.15,2013-02-17 11:50:00,
2013-02-17 07:00:00,24.5,15.4,29.94,North,32767,-999.0,0.0,68,0.00,,,0.00,0,Wunderground v.1.15,2013-02-17 12:00:00,
2013-02-17 07:05:00,24.4,15.7,29.95,North,32767,-999.0,0.0,69,0.00,,,0.00,0,Wunderground v.1.15,2013-02-17 12:05:00,
2013-02-17 07:15:00,24.2,15.8,29.95,North,32767,-999.0,0.0,70,0.00,,,0.00,0,Wunderground v.1.15,2013-02-17 12:15:00,
2013-02-17 07:20:00,24.2,15.8,29.96,North,32767,-999.0,0.0,70,0.00,,,0.00,5,Wunderground v.1.15,2013-02-17 12:20:00,
2013-02-17 07:30:00,24.2,15.8,29.96,North,32767,-999.0,0.0,70,0.00,,,0.00,9,Wunderground v.1.15,2013-02-17 12:30:00,
2013-02-17 07:35:00,24.2,15.8,29.96,North,32767,-999.0,0.0,70,0.00,,,0.00,11,Wunderground v.1.15,2013-02-17 12:35:00,
2013-02-17 07:40:00,24.2,16.1,29.96,North,32767,-999.0,0.0,71,0.00,,,0.00,12,Wunderground v.1.15,2013-02-17 12:40:00,
2013-02-17 07:50:00,24.4,15.7,29.97,North,32767,-999.0,0.0,69,0.00,,,0.00,23,Wunderground v.1.15,2013-02-17 12:50:00,
2013-02-17 07:55:00,24.4,16.7,29.97,North,32767,-999.0,0.0,72,0.00,,,0.00,19,Wunderground v.1.15,2013-02-17 12:55:00,
2013-02-17 08:05:00,24.5,16.4,29.97,North,32767,-999.0,0.0,71,0.00,,,0.00,30,Wunderground v.1.15,2013-02-17 13:05:00,
2013-02-17 08:10:00,24.7,16.3,29.97,North,32767,-999.0,0.0,70,0.00,,,0.00,44,Wunderground v.1.15,2013-02-17 13:10:00,
2013-02-17 08:15:00,25.0,15.9,29.97,North,32767,-999.0,0.0,68,0.00,,,0.00,44,Wunderground v.1.15,2013-02-17 13:15:00,
2013-02-17 08:25:00,25.4,14.5,29.98,North,32767,-999.0,0.0,63,0.00,,,0.00,44,Wunderground v.1.15,2013-02-17 13:25:00,
2013-02-17 08:30:00,25.7,14.8,29.98,North,32767,-999.0,0.0,63,0.00,,,0.00,58,Wunderground v.1.15,2013-02-17 13:30:00,
2013-02-17 08:35:00,25.8,15.3,29.99,NW,319,0.0,0.0,64,0.00,,,0.00,63,Wunderground v.1.15,2013-02-17 13:35:00,
2013-02-17 08:45:00,26.3,13.9,29.99,West,268,0.0,0.0,59,0.00,,,0.00,51,Wunderground v.1.15,2013-02-17 13:45:00,
2013-02-17 08:50:00,26.4,13.2,30.00,WNW,292,0.0,0.0,57,0.00,,,0.00,104,Wunderground v.1.15,2013-02-17 13:50:00,
2013-02-17 09:00:00,26.6,12.6,30.00,NW,306,0.0,0.0,55,0.00,,,0.00,114,Wunderground v.1.15,2013-02-17 14:00:00,
2013-02-17 09:05:00,26.7,11.4,30.00,West,265,0.0,0.0,52,0.00,,,0.00,95,Wunderground v.1.15,2013-02-17 14:05:00,
2013-02-17 09:15:00,26.9,11.6,30.00,WNW,282,0.0,0.0,52,0.00,,,0.00,151,Wunderground v.1.15,2013-02-17 14:15:00,
2013-02-17 09:20:00,27.2,11.4,30.00,NW,308,0.0,0.0,51,0.00,,,0.00,162,Wunderground v.1.15,2013-02-17 14:20:00,
2013-02-17 09:30:00,27.5,12.2,30.00,NNW,329,0.0,0.0,52,0.00,,,0.00,164,Wunderground v.1.15,2013-02-17 14:30:00,
2013-02-17 09:35:00,27.3,10.2,30.01,NW,308,0.0,0.0,48,0.00,,,0.00,118,Wunderground v.1.15,2013-02-17 14:35:00,
2013-02-17 09:45:00,27.3,8.7,30.01,North,357,0.0,0.0,45,0.00,,,0.00,100,Wunderground v.1.15,2013-02-17 14:45:00,
2013-02-17 09:55:00,27.5,9.9,30.01,NW,304,0.0,0.0,47,0.00,,,0.00,88,Wunderground v.1.15,2013-02-17 14:55:00,
2013-02-17 10:05:00,28.1,11.4,30.02,NW,311,0.0,0.0,49,0.00,,,0.00,315,Wunderground v.1.15,2013-02-17 15:05:00,
2013-02-17 10:10:00,28.4,11.6,30.02,North,1,0.0,0.0,49,0.00,,,0.00,120,Wunderground v.1.15,2013-02-17 15:10:00,
2013-02-17 10:20:00,28.5,10.3,30.02,WSW,246,0.0,0.0,46,0.00,,,0.00,72,Wunderground v.1.15,2013-02-17 15:20:00,
2013-02-17 10:30:00,28.7,11.9,30.02,NW,312,0.0,0.0,49,0.00,,,0.00,357,Wunderground v.1.15,2013-02-17 15:30:00,
2013-02-17 10:40:00,29.0,11.3,30.03,North,352,0.0,4.0,47,0.00,,,0.00,545,Wunderground v.1.15,2013-02-17 15:40:00,
2013-02-17 10:45:00,29.1,10.9,30.03,NW,319,2.0,4.0,46,0.00,,,0.00,190,Wunderground v.1.15,2013-02-17 15:45:00,
2013-02-17 10:55:00,29.7,11.9,30.03,NNW,344,1.0,2.0,47,0.00,,,0.00,282,Wunderground v.1.15,2013-02-17 15:55:00,
2013-02-17 11:00:00,29.5,11.7,30.03,North,3,3.0,4.0,47,0.00,,,0.00,77,Wunderground v.1.15,2013-02-17 16:00:00,
2013-02-17 11:05:00,29.4,9.1,30.03,NW,312,5.0,5.0,42,0.00,,,0.00,392,Wunderground v.1.15,2013-02-17 16:05:00,
2013-02-17 11:10:00,29.5,10.2,30.03,NW,318,4.0,4.0,44,0.00,,,0.00,178,Wunderground v.1.15,2013-02-17 16:10:00,
2013-02-17 11:20:00,30.3,11.5,30.03,North,356,1.0,11.0,45,0.00,,,0.00,424,Wunderground v.1.15,2013-02-17 16:20:00,
2013-02-17 11:25:00,30.0,10.7,30.03,NNW,335,5.0,11.0,44,0.00,,,0.00,220,Wunderground v.1.15,2013-02-17 16:25:00,
2013-02-17 11:30:00,30.3,11.5,30.03,NNW,329,5.0,13.0,45,0.00,,,0.00,326,Wunderground v.1.15,2013-02-17 16:30:00,
2013-02-17 11:40:00,30.1,9.7,30.03,NNW,339,3.0,7.0,42,0.00,,,0.00,424,Wunderground v.1.15,2013-02-17 16:40:00,
2013-02-17 11:50:00,30.0,8.6,30.03,North,359,4.0,4.0,40,0.00,,,0.00,424,Wunderground v.1.15,2013-02-17 16:50:00,
2013-02-17 11:55:00,30.6,12.7,30.03,West,265,3.0,6.0,47,0.00,,,0.00,405,Wunderground v.1.15,2013-02-17 16:55:00,
2013-02-17 12:05:00,31.2,12.3,30.03,NNW,336,1.0,2.0,45,0.00,,,0.00,524,Wunderground v.1.15,2013-02-17 17:05:00,
2013-02-17 12:10:00,31.6,12.2,30.03,NW,319,0.0,4.0,44,0.00,,,0.00,262,Wunderground v.1.15,2013-02-17 17:10:00,
2013-02-17 12:20:00,31.0,9.5,30.02,NE,34,3.0,3.0,40,0.00,,,0.00,567,Wunderground v.1.15,2013-02-17 17:20:00,
2013-02-17 12:25:00,31.2,11.8,30.02,NW,320,1.0,3.0,44,0.00,,,0.00,500,Wunderground v.1.15,2013-02-17 17:25:00,
2013-02-17 12:35:00,31.9,11.9,30.02,NW,312,1.0,1.0,43,0.00,,,0.00,313,Wunderground v.1.15,2013-02-17 17:35:00,
2013-02-17 12:45:00,31.8,10.7,30.02,North,349,4.0,6.0,41,0.00,,,0.00,723,Wunderground v.1.15,2013-02-17 17:45:00,
2013-02-17 12:50:00,32.4,13.9,30.02,NW,312,2.0,2.0,46,0.00,,,0.00,322,Wunderground v.1.15,2013-02-17 17:50:00,
2013-02-17 13:00:00,33.7,12.5,30.02,WSW,256,3.0,6.0,41,0.00,,,0.00,574,Wunderground v.1.15,2013-02-17 18:00:00,
2013-02-17 13:05:00,33.8,11.4,30.01,WNW,295,4.0,6.0,39,0.00,,,0.00,472,Wunderground v.1.15,2013-02-17 18:05:00,
2013-02-17 13:15:00,32.8,14.3,30.01,WNW,301,7.0,10.0,46,0.00,,,0.00,375,Wunderground v.1.15,2013-02-17 18:15:00,
2013-02-17 13:20:00,33.2,11.5,30.01,NW,306,5.0,5.0,40,0.00,,,0.00,220,Wunderground v.1.15,2013-02-17 18:20:00,
2013-02-17 13:30:00,34.0,13.3,30.01,NNW,342,2.0,2.0,42,0.00,,,0.00,456,Wunderground v.1.15,2013-02-17 18:30:00,
2013-02-17 13:35:00,34.4,11.4,30.00,West,278,1.0,2.0,38,0.00,,,0.00,435,Wunderground v.1.15,2013-02-17 18:35:00,
2013-02-17 13:45:00,34.3,11.9,30.00,North,359,2.0,2.0,39,0.00,,,0.00,324,Wunderground v.1.15,2013-02-17 18:45:00,
2013-02-17 13:50:00,34.1,11.1,30.00,SW,226,1.0,1.0,38,0.00,,,0.00,422,Wunderground v.1.15,2013-02-17 18:50:00,
2013-02-17 14:00:00,34.1,11.7,30.00,WNW,296,4.0,7.0,39,0.00,,,0.00,128,Wunderground v.1.15,2013-02-17 19:00:00,
2013-02-17 14:10:00,34.6,11.0,30.00,North,1,1.0,1.0,37,0.00,,,0.00,352,Wunderground v.1.15,2013-02-17 19:10:00,
2013-02-17 14:15:00,34.9,10.6,30.00,North,0,1.0,1.0,36,0.00,,,0.00,216,Wunderground v.1.15,2013-02-17 19:15:00,
2013-02-17 14:25:00,35.3,11.0,30.00,WNW,295,2.0,6.0,36,0.00,,,0.00,70,Wunderground v.1.15,2013-02-17 19:25:00,
2013-02-17 14:30:00,35.5,11.1,30.00,NNW,335,3.0,9.0,36,0.00,,,0.00,503,Wunderground v.1.15,2013-02-17 19:30:00,
2013-02-17 14:35:00,35.6,10.6,30.00,NW,308,5.0,9.0,35,0.00,,,0.00,537,Wunderground v.1.15,2013-02-17 19:35:00,
2013-02-17 14:45:00,36.3,11.9,30.00,WNW,302,1.0,10.0,36,0.00,,,0.00,429,Wunderground v.1.15,2013-02-17 19:45:00,
2013-02-17 14:55:00,36.3,12.5,30.00,NNW,332,3.0,9.0,37,0.00,,,0.00,274,Wunderground v.1.15,2013-02-17 19:55:00,
2013-02-17 15:05:00,36.2,9.1,30.00,NW,304,5.0,7.0,32,0.00,,,0.00,176,Wunderground v.1.15,2013-02-17 20:05:00,
2013-02-17 15:10:00,36.2,9.8,30.00,NNW,339,4.0,4.0,33,0.00,,,0.00,232,Wunderground v.1.15,2013-02-17 20:10:00,
2013-02-17 15:20:00,36.8,10.3,30.00,NW,316,0.0,0.0,33,0.00,,,0.00,336,Wunderground v.1.15,2013-02-17 20:20:00,
2013-02-17 15:30:00,36.3,8.5,30.00,NNW,343,6.0,6.0,31,0.00,,,0.00,76,Wunderground v.1.15,2013-02-17 20:30:00,
2013-02-17 15:40:00,36.3,8.5,30.00,NNW,330,5.0,5.0,31,0.00,,,0.00,118,Wunderground v.1.15,2013-02-17 20:40:00,
2013-02-17 15:50:00,36.5,10.1,30.01,NW,305,3.0,3.0,33,0.00,,,0.00,128,Wunderground v.1.15,2013-02-17 20:50:00,
2013-02-17 15:55:00,36.8,7.5,30.01,NW,306,0.0,3.0,29,0.00,,,0.00,130,Wunderground v.1.15,2013-02-17 20:55:00,
2013-02-17 16:05:00,36.9,11.1,30.01,NW,311,2.0,2.0,34,0.00,,,0.00,165,Wunderground v.1.15,2013-02-17 21:05:00,
2013-02-17 16:10:00,36.9,8.3,30.01,NW,309,2.0,2.0,30,0.00,,,0.00,218,Wunderground v.1.15,2013-02-17 21:10:00,
2013-02-17 16:15:00,36.8,10.3,30.01,West,260,2.0,2.0,33,0.00,,,0.00,164,Wunderground v.1.15,2013-02-17 21:15:00,
2013-02-17 16:25:00,36.8,10.3,30.02,NW,311,1.0,1.0,33,0.00,,,0.00,104,Wunderground v.1.15,2013-02-17 21:25:00,
2013-02-17 16:30:00,36.5,10.7,30.02,WNW,302,1.0,2.0,34,0.00,,,0.00,33,Wunderground v.1.15,2013-02-17 21:30:00,
2013-02-17 16:40:00,36.0,10.3,30.02,NW,318,3.0,3.0,34,0.00,,,0.00,33,Wunderground v.1.15,2013-02-17 21:40:00,
2013-02-17 16:50:00,36.2,11.1,30.02,WNW,282,0.0,0.0,35,0.00,,,0.00,39,Wunderground v.1.15,2013-02-17 21:50:00,
2013-02-17 17:00:00,36.2,9.8,30.02,WNW,282,0.0,0.0,33,0.00,,,0.00,44,Wunderground v.1.15,2013-02-17 22:00:00,
2013-02-17 17:05:00,36.2,9.8,30.03,North,32767,-999.0,0.0,33,0.00,,,0.00,23,Wunderground v.1.15,2013-02-17 22:05:00,
2013-02-17 17:15:00,35.8,8.1,30.03,North,32767,-999.0,0.0,31,0.00,,,0.00,18,Wunderground v.1.15,2013-02-17 22:15:00,
2013-02-17 17:20:00,35.8,10.8,30.03,North,32767,-999.0,0.0,35,0.00,,,0.00,14,Wunderground v.1.15,2013-02-17 22:20:00,
2013-02-17 17:30:00,35.5,8.5,30.03,North,32767,-999.0,0.0,32,0.00,,,0.00,11,Wunderground v.1.15,2013-02-17 22:30:00,
2013-02-17 17:35:00,35.3,7.6,30.04,North,32767,-999.0,0.0,31,0.00,,,0.00,7,Wunderground v.1.15,2013-02-17 22:35:00,
2013-02-17 17:45:00,35.5,11.1,30.04,North,32767,-999.0,0.0,36,0.00,,,0.00,5,Wunderground v.1.15,2013-02-17 22:45:00,
2013-02-17 17:55:00,35.0,10.7,30.04,North,32767,-999.0,0.0,36,0.00,,,0.00,0,Wunderground v.1.15,2013-02-17 22:55:00,
2013-02-17 18:05:00,34.6,11.6,30.05,North,32767,-999.0,0.0,38,0.00,,,0.00,0,Wunderground v.1.15,2013-02-17 23:05:00,
2013-02-17 18:10:00,34.3,10.7,30.05,North,32767,-999.0,0.0,37,0.00,,,0.00,0,Wunderground v.1.15,2013-02-17 23:10:00,
2013-02-17 18:20:00,34.1,8.6,30.06,North,32767,-999.0,0.0,34,0.00,,,0.00,0,Wunderground v.1.15,2013-02-17 23:20:00,
2013-02-17 18:25:00,34.1,8.6,30.06,North,32767,-999.0,0.0,34,0.00,,,0.00,0,Wunderground v.1.15,2013-02-17 23:25:00,
2013-02-17 18:35:00,34.1,8.0,30.06,North,32767,-999.0,0.0,33,0.00,,,0.00,0,Wunderground v.1.15,2013-02-17 23:35:00,
2013-02-17 18:40:00,34.1,7.3,30.06,North,32767,-999.0,0.0,32,0.00,,,0.00,0,Wunderground v.1.15,2013-02-17 23:40:00,
2013-02-17 18:50:00,34.6,7.0,30.07,North,32767,-999.0,0.0,31,0.00,,,0.00,0,Wunderground v.1.15,2013-02-17 23:50:00,
2013-02-17 18:55:00,34.6,7.0,30.07,North,32767,-999.0,0.0,31,0.00,,,0.00,0,Wunderground v.1.15,2013-02-17 23:55:00,
2013-02-17 19:05:00,34.1,6.6,30.08,North,32767,-999.0,0.0,31,0.00,,,0.00,0,Wunderground v.1.15,2013-02-18 00:05:00,
2013-02-17 19:15:00,33.8,7.0,30.08,North,32767,-999.0,0.0,32,0.00,,,0.00,0,Wunderground v.1.15,2013-02-18 00:15:00,
2013-02-17 19:20:00,33.5,7.4,30.08,North,32767,-999.0,0.0,33,0.00,,,0.00,0,Wunderground v.1.15,2013-02-18 00:20:00,
2013-02-17 19:30:00,32.5,7.2,30.08,North,32767,-999.0,0.0,34,0.00,,,0.00,0,Wunderground v.1.15,2013-02-18 00:30:00,
2013-02-17 19:35:00,32.1,8.1,30.09,North,32767,-999.0,0.0,36,0.00,,,0.00,0,Wunderground v.1.15,2013-02-18 00:35:00,
2013-02-17 19:45:00,31.6,9.4,30.09,North,32767,-999.0,0.0,39,0.00,,,0.00,0,Wunderground v.1.15,2013-02-18 00:45:00,
2013-02-17 19:55:00,31.5,8.8,30.09,North,32767,-999.0,0.0,38,0.00,,,0.00,0,Wunderground v.1.15,2013-02-18 00:55:00,
2013-02-17 20:00:00,31.6,8.9,30.09,North,32767,-999.0,0.0,38,0.00,,,0.00,0,Wunderground v.1.15,2013-02-18 01:00:00,
2013-02-17 20:05:00,31.8,9.0,30.10,North,32767,-999.0,0.0,38,0.00,,,0.00,0,Wunderground v.1.15,2013-02-18 01:05:00,